Youngstown, FL

7:28 PM CDT on August 04, 2015 (GMT -0500)
Southport (south) | | Change Station
CLOSE
Current Station
Personal Weather Station
Location: Panama City, FL
Elevation: 46 ft
Nearby Weather Stations

Elev 46 ft 30.30 °N, 85.61 °W | Updated 9 seconds ago

Partly Cloudy
Partly Cloudy
84.7 °F
Feels Like 99 °F
N
6.7
Wind Variable Wind from West
Gusts 7.4 mph

Today
High -- | Low -- °F
--% Chance of Precip.
Yesterday
High -- | Low -- °F
Precip. -- in
6:02 AM 7:33 PM
Waning Gibbous, 73% visible
Pressure 30.02 in
Visibility 10.0 miles
Clouds Few 2800 ft
Few 3400 ft
Heat Index 99 °F
Dew Point 80 °F
Humidity 87%
Rainfall 0.00 in
Snow Depth Not available.
UV 0.0 out of 12
Pollen 3.80 out of 12
Air Quality Not available.
Flu Activity Not available.
METAR KECP 042353Z 19008KT 10SM FEW028 FEW034 30/24 A2999 RMK AO2 SLP165 T03000244 10333 20300 53000

More Conditions Fewer Conditions

Pressure 30.02 in
Visibility 10.0 miles
Clouds Few 2800 ft
Few 3400 ft
Heat Index 99 °F
Dew Point 80 °F
Humidity 87%
Rainfall 0.00 in
Snow Depth Not available.
UV 0.0 out of 12
Pollen 3.80 out of 12
Air Quality Not available.
Flu Activity Not available.
METAR KECP 042353Z 19008KT 10SM FEW028 FEW034 30/24 A2999 RMK AO2 SLP165 T03000244 10333 20300 53000

More Conditions Fewer Conditions

10-Day Weather Forecast

×

Almanac

Astronomy

Aug. 04, 2015 Rise Set
Actual Time
Civil Twilight
Nautical Twilight
Astronomical Twilight
Moon
Length of Visible Light
Length of Day
Tomorrow will be .
, % of the Moon is Illuminated

Today's Extremes

State Highs State Lows

Community

WunderPhotos

Upload Photos

1,844,033 photos uploaded!

WunderBlogs® & News

Nearby

Air Quality

  Air Quality AQ Index Pollutant
Not available.

Snow Depth

Station Depth Elevation

Earthquake Activity

City Distance Mag. Time & Date
Minimum magnitude displayed is 2.5.

Coastal Water Temperatures

Place Temperature

Stations

Nearby Weather Stations

Station Location Temp. Windchill Dew Point Humidity Wind Precip. Elev Updated Type